Time;durP1;ratioP1;P1;durP2;ratioP2;P2;SDS_P1;SDS_P2;PMS_P1;PMS_P2;Temp;Humidity;BMP_temperature;BMP_pressure;BME280_temperature;BME280_humidity;BME280_pressure;Samples;Min_cycle;Max_cycle;Signal;HPM_P1;HPM_P2
2023/05/12 00:00:31;;;;;;;9.00;3.90;;;14.30;99.90;;;;;;10136532;28;20032;-62
2023/05/12 00:05:22;;;;;;;8.10;3.55;;;14.40;99.90;;;;;;10113136;28;20390;-62
2023/05/12 00:10:13;;;;;;;7.60;4.20;;;14.30;99.90;;;;;;10136033;28;20114;-63
2023/05/12 00:15:04;;;;;;;8.02;5.28;;;14.30;99.90;;;;;;10142107;28;20520;-64
2023/05/12 00:19:55;;;;;;;10.05;4.30;;;14.30;99.90;;;;;;10151379;28;20282;-62
2023/05/12 00:24:45;;;;;;;8.10;4.10;;;14.10;99.90;;;;;;10148656;28;20647;-61
2023/05/12 00:29:36;;;;;;;8.40;4.40;;;14.10;99.90;;;;;;10152930;28;20020;-62
2023/05/12 00:34:27;;;;;;;8.93;4.18;;;14.00;99.90;;;;;;10151312;28;20080;-67
2023/05/12 00:39:18;;;;;;;7.43;4.55;;;14.20;99.90;;;;;;10156498;28;20093;-66
2023/05/12 00:44:08;;;;;;;8.73;4.57;;;14.20;99.90;;;;;;10143631;28;20552;-66
2023/05/12 00:48:59;;;;;;;10.15;4.68;;;14.20;99.90;;;;;;10132170;28;20028;-68
2023/05/12 00:53:50;;;;;;;6.72;3.55;;;14.20;99.90;;;;;;10153347;28;20036;-66
2023/05/12 00:58:41;;;;;;;6.15;4.32;;;14.10;99.90;;;;;;10158597;28;20517;-62
2023/05/12 01:03:31;;;;;;;9.07;4.90;;;14.00;99.90;;;;;;10157109;28;20043;-61
2023/05/12 01:08:23;;;;;;;8.82;4.30;;;14.10;99.90;;;;;;10139930;28;20032;-61
2023/05/12 01:13:14;;;;;;;8.95;4.68;;;14.20;99.90;;;;;;10156302;28;20556;-64
2023/05/12 01:18:05;;;;;;;7.47;4.22;;;14.00;99.90;;;;;;10142676;28;20029;-65
2023/05/12 01:22:57;;;;;;;7.65;4.60;;;14.00;99.90;;;;;;10146295;28;20103;-63
2023/05/12 01:27:48;;;;;;;7.00;4.18;;;14.00;99.90;;;;;;10151488;28;20024;-64
2023/05/12 01:32:39;;;;;;;7.68;4.28;;;13.90;99.90;;;;;;10144090;28;20029;-65
2023/05/12 01:37:30;;;;;;;7.53;4.32;;;13.90;99.90;;;;;;10142248;28;20112;-65
2023/05/12 01:42:20;;;;;;;8.27;4.35;;;14.00;99.90;;;;;;10143143;28;20367;-63
2023/05/12 01:47:12;;;;;;;6.75;4.45;;;14.00;99.90;;;;;;10142241;28;20040;-63
2023/05/12 01:52:03;;;;;;;6.80;3.90;;;14.10;99.90;;;;;;10139248;28;20211;-63
2023/05/12 01:56:54;;;;;;;8.27;4.38;;;14.10;99.90;;;;;;10145884;28;20056;-60
2023/05/12 02:01:44;;;;;;;6.97;4.80;;;14.20;99.90;;;;;;10141451;28;20032;-64
2023/05/12 02:06:35;;;;;;;10.07;5.60;;;14.00;99.90;;;;;;10137507;28;20032;-62
2023/05/12 02:11:26;;;;;;;8.38;4.82;;;14.00;99.90;;;;;;10156439;28;20107;-62
2023/05/12 02:16:16;;;;;;;7.97;4.20;;;13.90;99.90;;;;;;10147207;28;20121;-62
2023/05/12 02:21:07;;;;;;;6.28;4.22;;;13.90;99.90;;;;;;10139611;28;20048;-63
2023/05/12 02:25:57;;;;;;;8.13;4.63;;;13.80;99.90;;;;;;10149018;28;20027;-66
2023/05/12 02:30:49;;;;;;;10.20;5.13;;;14.00;99.90;;;;;;10160407;28;20534;-65
2023/05/12 02:35:40;;;;;;;9.52;4.93;;;14.00;99.90;;;;;;10152037;28;20107;-64
2023/05/12 02:40:31;;;;;;;7.93;4.22;;;14.00;99.90;;;;;;10151135;28;20032;-63
2023/05/12 02:45:21;;;;;;;6.82;4.22;;;14.00;99.90;;;;;;10149402;28;20033;-61
2023/05/12 02:50:12;;;;;;;9.98;4.85;;;13.90;99.90;;;;;;10151515;28;20421;-61
2023/05/12 02:55:03;;;;;;;7.15;4.18;;;13.80;99.90;;;;;;10148089;28;20041;-61
2023/05/12 02:59:53;;;;;;;6.72;4.05;;;13.80;99.90;;;;;;10153399;28;20112;-61
2023/05/12 03:04:44;;;;;;;7.60;4.03;;;13.80;99.90;;;;;;10130390;28;20386;-62
2023/05/12 03:09:34;;;;;;;8.35;4.82;;;13.80;99.90;;;;;;10117821;28;20029;-61
2023/05/12 03:14:27;;;;;;;7.47;4.50;;;13.80;99.90;;;;;;10113102;28;20059;-63
2023/05/12 03:19:18;;;;;;;7.28;3.28;;;13.80;99.90;;;;;;10139566;28;20041;-61
2023/05/12 03:24:08;;;;;;;7.00;3.80;;;13.70;99.90;;;;;;10147505;28;20041;-61
2023/05/12 03:28:59;;;;;;;5.32;3.25;;;13.60;99.90;;;;;;10155543;28;20039;-63
2023/05/12 03:33:49;;;;;;;6.90;4.35;;;13.60;99.90;;;;;;10160491;28;20032;-60
2023/05/12 03:38:40;;;;;;;7.55;4.47;;;13.80;99.90;;;;;;10147106;28;20496;-60
2023/05/12 03:43:31;;;;;;;6.93;4.40;;;13.70;99.90;;;;;;10137702;28;20025;-61
2023/05/12 03:48:22;;;;;;;6.90;4.20;;;13.60;99.90;;;;;;10143154;28;20577;-61
2023/05/12 03:53:12;;;;;;;7.63;4.53;;;13.70;99.90;;;;;;10132607;28;20560;-63
2023/05/12 03:58:03;;;;;;;6.93;4.10;;;13.70;99.90;;;;;;10136340;28;20039;-61
2023/05/12 04:02:53;;;;;;;6.38;3.55;;;13.80;99.90;;;;;;10142053;28;20179;-63
2023/05/12 04:07:44;;;;;;;8.15;4.20;;;13.90;99.90;;;;;;10139650;28;20040;-63
2023/05/12 04:12:35;;;;;;;8.40;4.18;;;13.70;99.90;;;;;;10127634;28;20021;-61
2023/05/12 04:17:25;;;;;;;7.53;4.38;;;13.80;99.90;;;;;;10144498;28;20505;-61
2023/05/12 04:22:16;;;;;;;8.02;4.38;;;13.80;99.90;;;;;;10144477;28;20566;-61
2023/05/12 04:27:07;;;;;;;10.45;5.50;;;13.70;99.90;;;;;;10123247;28;20036;-61
2023/05/12 04:31:58;;;;;;;8.85;4.75;;;13.70;99.90;;;;;;10159996;28;20019;-62
2023/05/12 04:36:49;;;;;;;8.57;6.13;;;13.70;99.90;;;;;;10156222;28;20135;-62
2023/05/12 04:41:40;;;;;;;8.00;4.43;;;13.80;99.90;;;;;;10152863;28;20460;-61
2023/05/12 04:46:30;;;;;;;8.90;5.18;;;13.80;99.90;;;;;;10134703;28;20502;-62
2023/05/12 04:51:21;;;;;;;9.32;4.60;;;13.70;99.90;;;;;;10146458;28;20106;-62
2023/05/12 04:56:12;;;;;;;8.90;4.82;;;13.90;99.90;;;;;;10156721;28;20294;-61
2023/05/12 05:01:02;;;;;;;11.27;5.70;;;13.90;99.90;;;;;;10146134;28;20035;-61
2023/05/12 05:05:53;;;;;;;10.38;5.35;;;13.90;99.90;;;;;;10143194;28;20052;-63
2023/05/12 05:10:44;;;;;;;14.32;6.00;;;13.90;99.90;;;;;;10149396;28;20020;-61
2023/05/12 05:15:34;;;;;;;10.93;5.97;;;13.90;99.90;;;;;;10141546;28;20078;-60
2023/05/12 05:20:27;;;;;;;9.60;4.90;;;13.80;99.90;;;;;;10125482;28;20103;-61
2023/05/12 05:25:18;;;;;;;14.80;6.00;;;13.80;99.90;;;;;;10140433;28;20036;-61
2023/05/12 05:30:09;;;;;;;9.15;4.72;;;13.80;99.90;;;;;;10154449;28;20038;-62
2023/05/12 05:34:59;;;;;;;9.63;5.75;;;13.80;99.90;;;;;;10158356;28;20119;-62
2023/05/12 05:39:50;;;;;;;12.93;6.68;;;13.90;99.90;;;;;;10157139;28;20020;-61
2023/05/12 05:44:42;;;;;;;14.48;6.45;;;13.90;99.90;;;;;;10155174;28;20036;-61
2023/05/12 05:49:33;;;;;;;8.32;4.45;;;14.00;99.90;;;;;;10139860;28;20044;-62
2023/05/12 05:54:24;;;;;;;12.38;6.55;;;13.90;99.90;;;;;;10154314;28;20036;-62
2023/05/12 05:59:15;;;;;;;13.23;6.07;;;13.90;99.90;;;;;;10170283;28;20028;-62
2023/05/12 06:04:05;;;;;;;10.25;5.78;;;13.90;99.90;;;;;;10155388;28;20547;-61
2023/05/12 06:08:57;;;;;;;11.82;5.82;;;13.90;99.90;;;;;;10144708;28;20040;-61
2023/05/12 06:13:48;;;;;;;10.20;6.13;;;14.10;99.90;;;;;;10118120;28;20123;-62
2023/05/12 06:18:38;;;;;;;11.38;5.70;;;14.20;99.90;;;;;;10131262;28;20536;-62
2023/05/12 06:23:29;;;;;;;17.00;5.28;;;14.20;99.90;;;;;;10134608;28;20494;-61
2023/05/12 06:28:20;;;;;;;10.60;5.75;;;14.00;99.90;;;;;;10145296;28;20047;-62
2023/05/12 06:33:10;;;;;;;7.82;5.00;;;14.00;99.90;;;;;;10140264;28;20032;-62
2023/05/12 06:38:01;;;;;;;9.82;5.22;;;14.20;99.90;;;;;;10140553;28;20032;-67
2023/05/12 06:42:52;;;;;;;8.20;5.43;;;14.10;99.90;;;;;;10140963;28;20059;-66
2023/05/12 06:47:45;;;;;;;9.23;5.05;;;14.10;99.90;;;;;;10140229;28;20549;-64
2023/05/12 06:52:36;;;;;;;10.73;5.63;;;14.20;99.90;;;;;;10139794;28;20049;-67
2023/05/12 06:57:27;;;;;;;8.60;5.75;;;14.20;99.90;;;;;;10140279;28;20041;-65
2023/05/12 07:02:17;;;;;;;10.38;6.70;;;14.20;99.90;;;;;;10133782;28;20037;-64
2023/05/12 07:07:08;;;;;;;8.82;5.15;;;14.30;99.90;;;;;;10141733;28;20063;-65
2023/05/12 07:11:59;;;;;;;7.93;4.28;;;14.40;99.90;;;;;;10166564;28;20173;-66
2023/05/12 07:16:50;;;;;;;8.77;5.22;;;14.40;99.90;;;;;;10147521;28;20047;-61
2023/05/12 07:21:41;;;;;;;10.25;4.95;;;14.40;99.90;;;;;;10150516;28;20032;-62
2023/05/12 07:26:31;;;;;;;7.38;4.20;;;14.60;99.90;;;;;;10147371;28;20400;-61
2023/05/12 07:31:22;;;;;;;7.40;4.53;;;14.50;99.90;;;;;;10155730;28;20081;-60
2023/05/12 07:36:13;;;;;;;7.80;4.43;;;14.70;99.90;;;;;;10153344;28;20244;-64
2023/05/12 07:41:03;;;;;;;6.85;4.05;;;14.70;99.90;;;;;;10157286;28;20039;-62
2023/05/12 07:45:55;;;;;;;7.15;3.78;;;14.70;99.90;;;;;;10155256;28;20385;-62
2023/05/12 07:50:45;;;;;;;5.90;4.05;;;14.70;99.90;;;;;;10146827;28;20044;-62
2023/05/12 07:55:36;;;;;;;6.60;4.63;;;14.80;99.90;;;;;;10147799;28;20044;-61
2023/05/12 08:00:27;;;;;;;9.50;5.50;;;14.80;99.90;;;;;;10136143;28;20062;-62
2023/05/12 08:05:18;;;;;;;7.03;4.78;;;15.00;99.90;;;;;;10134773;28;20094;-61
2023/05/12 08:10:11;;;;;;;7.25;4.55;;;15.00;99.90;;;;;;10158473;28;20020;-62
2023/05/12 08:15:02;;;;;;;9.25;4.28;;;15.10;99.90;;;;;;10163102;28;20105;-61
2023/05/12 08:19:53;;;;;;;8.10;5.32;;;15.10;99.90;;;;;;10141756;28;20028;-65
2023/05/12 08:24:45;;;;;;;7.45;3.85;;;15.20;99.90;;;;;;10140937;28;20036;-63
2023/05/12 08:29:35;;;;;;;5.88;3.92;;;15.50;99.90;;;;;;10117601;28;20103;-61
2023/05/12 08:34:26;;;;;;;8.40;5.40;;;15.70;99.90;;;;;;10136808;28;20118;-62
2023/05/12 08:39:17;;;;;;;11.85;5.55;;;15.80;99.90;;;;;;10135098;28;20039;-62
2023/05/12 08:44:08;;;;;;;7.15;4.85;;;16.20;99.90;;;;;;10136651;28;20133;-64
2023/05/12 08:49:01;;;;;;;6.50;4.45;;;16.30;99.90;;;;;;10125726;28;20021;-63
2023/05/12 08:53:54;;;;;;;6.60;4.20;;;16.60;99.90;;;;;;10132001;28;20044;-63
2023/05/12 08:58:45;;;;;;;5.70;3.60;;;16.60;99.90;;;;;;10115853;28;20505;-65
2023/05/12 09:03:38;;;;;;;5.10;3.67;;;16.80;99.90;;;;;;10133940;28;20046;-63
2023/05/12 09:08:31;;;;;;;6.47;3.10;;;16.60;99.90;;;;;;10149931;28;20017;-63
2023/05/12 09:13:27;;;;;;;4.47;3.53;;;16.30;99.90;;;;;;10149499;28;20204;-64
2023/05/12 09:18:18;;;;;;;4.18;2.63;;;16.30;99.90;;;;;;10120950;28;20520;-63
2023/05/12 09:23:19;;;;;;;5.10;2.22;;;16.40;99.90;;;;;;10138984;28;20024;-62
2023/05/12 09:28:10;;;;;;;6.47;2.47;;;16.50;99.90;;;;;;10113297;28;20196;-63
2023/05/12 09:33:12;;;;;;;4.22;2.65;;;16.80;99.90;;;;;;10122636;28;20275;-64
2023/05/12 09:38:07;;;;;;;2.70;2.03;;;17.10;99.90;;;;;;10147687;28;20032;-61
2023/05/12 09:42:58;;;;;;;3.70;2.55;;;17.20;99.90;;;;;;10144282;28;20043;-62
2023/05/12 09:47:52;;;;;;;2.42;2.10;;;17.60;99.90;;;;;;10142528;28;20028;-65
2023/05/12 09:52:42;;;;;;;3.50;2.47;;;18.20;99.90;;;;;;10078754;28;20041;-64
2023/05/12 09:57:38;;;;;;;2.40;2.17;;;18.50;99.90;;;;;;10084814;28;20589;-64
2023/05/12 10:02:30;;;;;;;4.55;2.58;;;18.50;99.90;;;;;;10081182;28;20025;-65
2023/05/12 10:07:26;;;;;;;4.18;2.40;;;17.90;99.90;;;;;;10076220;28;20091;-63
2023/05/12 10:12:17;;;;;;;3.95;2.88;;;17.50;99.90;;;;;;10074173;28;20061;-63
2023/05/12 10:17:09;;;;;;;4.82;2.85;;;17.20;99.90;;;;;;10067123;28;20073;-64
2023/05/12 10:22:00;;;;;;;5.93;2.72;;;17.30;99.90;;;;;;10073055;28;20025;-62
2023/05/12 10:26:54;;;;;;;4.20;3.20;;;17.30;99.90;;;;;;10078738;28;20033;-65
2023/05/12 10:31:46;;;;;;;6.05;4.10;;;17.20;99.90;;;;;;10079446;28;20032;-63
2023/05/12 10:36:48;;;;;;;8.55;4.22;;;17.00;99.90;;;;;;10065095;28;20036;-63
2023/05/12 10:41:39;;;;;;;4.25;2.90;;;16.90;99.90;;;;;;10070609;28;20495;-63
2023/05/12 10:46:30;;;;;;;7.95;3.25;;;16.90;99.90;;;;;;10056199;28;20075;-64
2023/05/12 10:51:23;;;;;;;5.63;3.55;;;16.90;99.90;;;;;;10107978;28;20051;-63
2023/05/12 10:56:23;;;;;;;5.63;3.33;;;16.90;99.90;;;;;;10118646;28;20619;-63
2023/05/12 11:01:23;;;;;;;5.05;2.60;;;16.80;99.90;;;;;;10140158;28;20059;-63
2023/05/12 11:06:18;;;;;;;3.38;2.13;;;16.80;99.90;;;;;;10141214;28;20032;-63
2023/05/12 11:11:09;;;;;;;2.57;2.13;;;17.00;99.90;;;;;;10139498;28;20190;-63
2023/05/12 11:15:59;;;;;;;7.28;3.80;;;17.10;99.90;;;;;;10140366;28;20139;-63
2023/05/12 11:20:50;;;;;;;5.38;2.03;;;17.40;99.90;;;;;;10142331;28;20042;-63
2023/05/12 11:25:43;;;;;;;1.63;1.10;;;17.60;99.90;;;;;;10141093;28;20028;-62
2023/05/12 11:30:34;;;;;;;2.70;1.10;;;17.50;99.90;;;;;;10120756;28;20437;-63
2023/05/12 11:35:29;;;;;;;2.58;1.70;;;17.70;99.90;;;;;;10138391;28;20117;-62
2023/05/12 11:40:21;;;;;;;3.08;1.70;;;17.90;99.90;;;;;;10138130;28;20042;-64
2023/05/12 11:45:25;;;;;;;3.22;1.85;;;18.20;99.90;;;;;;10142667;28;20042;-63
2023/05/12 11:50:21;;;;;;;1.42;1.23;;;18.80;99.90;;;;;;10137580;28;20080;-62
2023/05/12 11:55:18;;;;;;;1.63;1.20;;;18.90;99.90;;;;;;10114597;28;20040;-63
2023/05/12 12:00:09;;;;;;;3.15;1.80;;;18.80;99.90;;;;;;10138191;28;20037;-63
2023/05/12 12:04:59;;;;;;;5.53;2.08;;;18.50;99.90;;;;;;10126970;28;20069;-63
2023/05/12 12:09:51;;;;;;;4.82;1.52;;;18.60;99.90;;;;;;10136210;28;20069;-62
2023/05/12 12:14:41;;;;;;;2.10;1.50;;;18.90;99.90;;;;;;10140895;28;20040;-66
2023/05/12 12:19:32;;;;;;;2.03;1.60;;;19.00;99.90;;;;;;10139172;28;20033;-63
2023/05/12 12:24:24;;;;;;;2.35;1.77;;;18.90;99.90;;;;;;10137565;28;20032;-62
2023/05/12 12:29:14;;;;;;;2.97;1.90;;;19.00;99.90;;;;;;10138101;28;20037;-63
2023/05/12 12:34:05;;;;;;;2.70;1.80;;;19.10;99.90;;;;;;10136290;28;20056;-62
2023/05/12 12:38:55;;;;;;;3.00;1.70;;;19.20;99.90;;;;;;10136019;28;20482;-63
2023/05/12 12:43:46;;;;;;;2.42;1.90;;;19.00;99.90;;;;;;10136259;28;20038;-64
2023/05/12 12:48:37;;;;;;;2.70;1.65;;;18.90;99.90;;;;;;10135602;28;20028;-64
2023/05/12 12:53:27;;;;;;;1.95;1.77;;;18.80;99.90;;;;;;10134498;28;20056;-64
2023/05/12 12:58:18;;;;;;;5.88;1.90;;;18.70;99.90;;;;;;10140301;28;20189;-63
2023/05/12 13:03:09;;;;;;;2.20;1.75;;;19.20;99.90;;;;;;10126568;28;20112;-62
2023/05/12 13:08:00;;;;;;;2.35;1.20;;;19.60;99.90;;;;;;10135846;28;20089;-62
2023/05/12 13:12:51;;;;;;;1.67;1.52;;;19.90;99.90;;;;;;10142053;28;20056;-66
2023/05/12 13:17:41;;;;;;;1.50;1.40;;;20.10;99.90;;;;;;10104465;28;20045;-66
2023/05/12 13:22:32;;;;;;;4.25;1.35;;;20.00;99.90;;;;;;10141417;28;20029;-63
2023/05/12 13:27:22;;;;;;;1.90;1.10;;;20.60;99.90;;;;;;10145377;28;20056;-64
2023/05/12 13:32:15;;;;;;;1.60;1.08;;;20.90;99.90;;;;;;10136126;28;20029;-63
2023/05/12 13:37:05;;;;;;;2.30;1.70;;;20.60;99.90;;;;;;10119302;28;20032;-64
2023/05/12 13:41:56;;;;;;;2.13;1.40;;;21.00;99.90;;;;;;10135209;28;20486;-63
2023/05/12 13:46:47;;;;;;;2.00;1.42;;;21.90;99.90;;;;;;10132017;28;20385;-63
2023/05/12 13:51:37;;;;;;;1.60;1.40;;;21.10;99.90;;;;;;10133618;28;20641;-63
2023/05/12 13:56:28;;;;;;;1.30;1.15;;;20.50;99.90;;;;;;10134417;28;20622;-62
2023/05/12 14:01:19;;;;;;;2.25;0.90;;;20.20;99.90;;;;;;10134636;28;20115;-64
2023/05/12 14:06:11;;;;;;;2.58;1.33;;;20.20;99.90;;;;;;10125925;28;20105;-64
2023/05/12 14:11:02;;;;;;;1.33;1.02;;;20.10;99.90;;;;;;10134460;28;20021;-63
2023/05/12 14:15:52;;;;;;;2.45;1.38;;;20.30;99.90;;;;;;10134746;28;20526;-63
2023/05/12 14:20:44;;;;;;;1.92;1.17;;;20.50;99.90;;;;;;10144081;28;20586;-63
2023/05/12 14:25:34;;;;;;;1.60;1.00;;;20.40;99.90;;;;;;10132469;28;20043;-62
2023/05/12 14:30:25;;;;;;;2.72;1.40;;;20.40;99.90;;;;;;10150407;28;20025;-63
2023/05/12 14:35:15;;;;;;;1.67;1.20;;;21.30;99.90;;;;;;10144183;28;20044;-64
2023/05/12 14:40:07;;;;;;;1.02;0.90;;;21.90;99.80;;;;;;10122431;28;20046;-63
2023/05/12 14:44:58;;;;;;;0.95;0.85;;;22.60;99.10;;;;;;10141036;28;20105;-63
2023/05/12 14:49:49;;;;;;;1.02;0.70;;;23.30;98.50;;;;;;10150423;28;20569;-63
2023/05/12 14:54:39;;;;;;;5.00;1.17;;;22.30;98.90;;;;;;10136429;28;20059;-63
2023/05/12 14:59:30;;;;;;;1.40;0.90;;;23.00;98.70;;;;;;10140016;28;20056;-62
2023/05/12 15:04:21;;;;;;;1.67;1.15;;;24.90;97.10;;;;;;10122558;28;20036;-63
2023/05/12 15:09:11;;;;;;;1.85;1.15;;;25.50;96.60;;;;;;10130058;28;20024;-62
2023/05/12 15:14:03;;;;;;;2.13;1.10;;;25.90;95.80;;;;;;10139356;28;20105;-62
2023/05/12 15:18:54;;;;;;;2.15;1.30;;;26.60;95.10;;;;;;10149110;28;20044;-65
2023/05/12 15:23:45;;;;;;;1.40;1.30;;;27.20;94.70;;;;;;10127230;28;20025;-64
2023/05/12 15:28:36;;;;;;;3.95;1.77;;;27.70;93.80;;;;;;10137938;28;20100;-63
2023/05/12 15:33:26;;;;;;;6.47;1.38;;;26.10;93.90;;;;;;10121822;28;20036;-64
2023/05/12 15:38:17;;;;;;;1.23;0.80;;;23.50;95.20;;;;;;10138482;28;20143;-63
2023/05/12 15:43:08;;;;;;;0.75;0.75;;;22.00;95.80;;;;;;10138367;28;20028;-63
2023/05/12 15:47:58;;;;;;;1.88;1.00;;;21.60;96.00;;;;;;10121171;28;20041;-64
2023/05/12 15:52:49;;;;;;;1.67;0.95;;;24.50;94.20;;;;;;10133873;28;20037;-63
2023/05/12 15:57:40;;;;;;;1.75;1.02;;;23.80;94.00;;;;;;10140875;28;20042;-62
2023/05/12 16:02:30;;;;;;;2.63;1.45;;;24.30;93.80;;;;;;10135713;28;20033;-60
2023/05/12 16:07:21;;;;;;;0.90;0.80;;;27.70;91.70;;;;;;10136361;28;20123;-67
2023/05/12 16:12:12;;;;;;;1.85;0.93;;;28.30;90.90;;;;;;10120480;28;20093;-64
2023/05/12 16:17:02;;;;;;;0.95;0.85;;;26.50;91.80;;;;;;10122103;28;20079;-64
2023/05/12 16:21:53;;;;;;;0.82;0.80;;;27.40;90.70;;;;;;10142111;28;20016;-67
2023/05/12 16:26:44;;;;;;;1.30;1.02;;;27.30;90.10;;;;;;10142635;28;20076;-64
2023/05/12 16:31:35;;;;;;;0.93;0.80;;;28.20;88.50;;;;;;10136379;28;20043;-61
2023/05/12 16:36:26;;;;;;;1.17;1.08;;;28.70;87.80;;;;;;10135665;28;20058;-65
2023/05/12 16:41:17;;;;;;;3.20;2.00;;;28.60;86.60;;;;;;10142244;28;20093;-57
2023/05/12 16:46:09;;;;;;;2.15;1.33;;;28.50;86.90;;;;;;10136476;28;20028;-60
2023/05/12 16:51:07;;;;;;;1.50;1.35;;;25.40;89.60;;;;;;10114668;28;20055;-61
2023/05/12 16:55:58;;;;;;;3.42;1.48;;;22.80;92.00;;;;;;10139575;28;20574;-65
2023/05/12 17:00:49;;;;;;;3.08;1.90;;;21.50;92.90;;;;;;10136154;28;20100;-61
2023/05/12 17:05:44;;;;;;;1.92;1.48;;;20.90;93.60;;;;;;10116235;28;20098;-62
2023/05/12 17:10:34;;;;;;;2.40;1.85;;;20.80;93.60;;;;;;10137457;28;20025;-61
2023/05/12 17:15:25;;;;;;;5.07;2.35;;;20.10;94.50;;;;;;10134949;28;20060;-60
2023/05/12 17:20:16;;;;;;;4.38;2.70;;;20.30;94.80;;;;;;10137700;28;20020;-59
2023/05/12 17:25:08;;;;;;;3.22;2.28;;;21.10;94.60;;;;;;10152886;28;20020;-60
2023/05/12 17:29:58;;;;;;;3.97;2.80;;;20.90;94.70;;;;;;10135895;28;20040;-62
2023/05/12 17:34:50;;;;;;;3.28;2.58;;;20.20;95.50;;;;;;10134884;28;20480;-62
2023/05/12 17:39:43;;;;;;;5.63;2.55;;;19.80;96.10;;;;;;10143280;28;20035;-61
2023/05/12 17:44:33;;;;;;;2.85;2.10;;;19.60;96.50;;;;;;10132869;28;20032;-63
2023/05/12 17:49:24;;;;;;;3.13;2.20;;;19.20;97.00;;;;;;10133676;28;20127;-63
2023/05/12 17:54:15;;;;;;;2.97;2.20;;;18.80;97.60;;;;;;10143683;28;20043;-61
2023/05/12 17:59:05;;;;;;;3.72;1.90;;;18.50;98.20;;;;;;10141300;28;20043;-62
2023/05/12 18:03:57;;;;;;;4.53;2.60;;;18.30;98.60;;;;;;10141922;28;20035;-62
2023/05/12 18:08:47;;;;;;;4.25;2.72;;;18.10;99.20;;;;;;10144459;28;20035;-63
2023/05/12 18:13:38;;;;;;;5.68;2.83;;;18.10;99.30;;;;;;10123799;28;20047;-63
2023/05/12 18:18:28;;;;;;;4.38;3.05;;;18.10;99.40;;;;;;10142263;28;20351;-62
2023/05/12 18:23:19;;;;;;;3.17;2.47;;;18.00;99.60;;;;;;10146470;28;20107;-63
2023/05/12 18:28:10;;;;;;;4.07;2.33;;;17.90;99.80;;;;;;10147781;28;20036;-63
2023/05/12 18:33:00;;;;;;;6.07;2.67;;;17.90;99.90;;;;;;10141161;28;20105;-63
2023/05/12 18:37:51;;;;;;;3.42;2.65;;;17.80;99.90;;;;;;10140364;28;20040;-63
2023/05/12 18:42:42;;;;;;;3.78;2.58;;;17.70;99.90;;;;;;10140903;28;20024;-64
2023/05/12 18:47:33;;;;;;;4.32;3.03;;;17.80;99.90;;;;;;10128366;28;20456;-65
2023/05/12 18:52:24;;;;;;;4.20;2.42;;;17.70;99.90;;;;;;10119041;28;20143;-65
2023/05/12 18:57:15;;;;;;;5.43;2.38;;;17.60;99.90;;;;;;10139315;28;20107;-64
2023/05/12 19:02:06;;;;;;;3.00;2.30;;;17.60;99.90;;;;;;10142924;28;20549;-63
2023/05/12 19:06:56;;;;;;;3.33;2.03;;;17.50;99.90;;;;;;10134770;28;20034;-66
2023/05/12 19:11:47;;;;;;;2.35;1.83;;;17.50;99.90;;;;;;10140083;28;20490;-66
2023/05/12 19:16:38;;;;;;;3.42;2.10;;;17.50;99.90;;;;;;10140523;28;20044;-64
2023/05/12 19:21:31;;;;;;;2.22;1.52;;;17.40;99.90;;;;;;10143364;28;20036;-67
2023/05/12 19:26:21;;;;;;;4.78;1.45;;;17.40;99.90;;;;;;10144937;28;20025;-64
2023/05/12 19:31:12;;;;;;;2.00;1.60;;;17.40;99.90;;;;;;10111487;28;20638;-63
2023/05/12 19:36:03;;;;;;;1.70;1.30;;;17.30;99.90;;;;;;10120306;28;20053;-62
2023/05/12 19:40:54;;;;;;;3.35;2.03;;;17.20;99.90;;;;;;10124107;28;20035;-64
2023/05/12 19:45:45;;;;;;;2.95;1.85;;;17.20;99.90;;;;;;10121048;28;20036;-64
2023/05/12 19:50:36;;;;;;;4.68;1.70;;;17.10;99.90;;;;;;10117863;28;20060;-64
2023/05/12 19:55:26;;;;;;;1.73;1.42;;;17.10;99.90;;;;;;10132786;28;20044;-64
2023/05/12 20:00:18;;;;;;;3.63;1.60;;;16.90;99.90;;;;;;10132606;28;20039;-62
2023/05/12 20:05:09;;;;;;;2.20;1.60;;;16.90;99.90;;;;;;10137421;28;20070;-63
2023/05/12 20:10:02;;;;;;;2.10;1.70;;;16.90;99.90;;;;;;10140869;28;20454;-62
2023/05/12 20:14:53;;;;;;;3.88;1.75;;;16.80;99.90;;;;;;10144129;28;20078;-62
2023/05/12 20:19:43;;;;;;;2.35;1.38;;;16.60;99.90;;;;;;10121214;28;20067;-63
2023/05/12 20:24:34;;;;;;;1.95;1.73;;;16.60;99.90;;;;;;10150346;28;20363;-62
2023/05/12 20:29:26;;;;;;;2.78;1.35;;;16.50;99.90;;;;;;10119685;28;20110;-63
2023/05/12 20:34:18;;;;;;;1.98;1.77;;;16.60;99.90;;;;;;10137007;28;20412;-64
2023/05/12 20:39:09;;;;;;;3.47;1.90;;;16.60;99.90;;;;;;10137310;28;20029;-63
2023/05/12 20:44:00;;;;;;;3.25;1.52;;;16.60;99.90;;;;;;10140286;28;20070;-63
2023/05/12 20:48:50;;;;;;;2.25;1.60;;;16.50;99.90;;;;;;10141730;28;20027;-64
2023/05/12 20:53:41;;;;;;;2.47;1.45;;;16.40;99.90;;;;;;10143531;28;20513;-65
2023/05/12 20:58:32;;;;;;;3.22;1.80;;;16.40;99.90;;;;;;10138183;28;20040;-62
2023/05/12 21:03:23;;;;;;;2.90;2.38;;;16.40;99.90;;;;;;10114196;28;20029;-63
2023/05/12 21:08:14;;;;;;;1.95;1.60;;;16.40;99.90;;;;;;10145984;28;20108;-65
2023/05/12 21:13:05;;;;;;;2.30;1.63;;;16.30;99.90;;;;;;10138636;28;20039;-63
2023/05/12 21:17:56;;;;;;;2.45;1.55;;;16.20;99.90;;;;;;10137240;28;20050;-62
2023/05/12 21:22:46;;;;;;;2.67;1.67;;;16.10;99.90;;;;;;10124258;28;20311;-63
2023/05/12 21:27:39;;;;;;;2.95;1.70;;;16.00;99.90;;;;;;10136418;28;20036;-64
2023/05/12 21:32:30;;;;;;;2.60;1.30;;;16.10;99.90;;;;;;10126764;28;20024;-64
2023/05/12 21:37:20;;;;;;;1.27;1.17;;;16.00;99.90;;;;;;10147432;28;20041;-63
2023/05/12 21:42:11;;;;;;;1.17;1.00;;;15.90;99.90;;;;;;10135573;28;20028;-64
2023/05/12 21:47:05;;;;;;;1.92;1.30;;;16.00;99.90;;;;;;10130699;28;20347;-66
2023/05/12 21:51:55;;;;;;;2.05;1.55;;;15.80;99.90;;;;;;10125096;28;20071;-62
2023/05/12 21:56:46;;;;;;;2.85;1.48;;;15.90;99.90;;;;;;10146116;28;20036;-64
2023/05/12 22:01:37;;;;;;;1.48;1.20;;;15.90;99.90;;;;;;10143836;28;20084;-63
2023/05/12 22:06:27;;;;;;;1.10;0.80;;;15.80;99.90;;;;;;10134975;28;20116;-63
2023/05/12 22:11:18;;;;;;;2.88;1.60;;;15.80;99.90;;;;;;10128719;28;20182;-62
2023/05/12 22:16:09;;;;;;;1.75;1.40;;;15.90;99.90;;;;;;10147485;28;20049;-63
2023/05/12 22:20:59;;;;;;;2.17;1.40;;;15.90;99.90;;;;;;10149326;28;20025;-63
2023/05/12 22:25:50;;;;;;;1.33;1.17;;;15.90;99.90;;;;;;10146981;28;20378;-64
2023/05/12 22:30:41;;;;;;;1.42;1.20;;;15.80;99.90;;;;;;10143035;28;20482;-62
2023/05/12 22:35:31;;;;;;;1.60;1.20;;;15.70;99.90;;;;;;10150258;28;20052;-63
2023/05/12 22:40:22;;;;;;;2.63;1.40;;;15.60;99.90;;;;;;10142659;28;20484;-63
2023/05/12 22:45:13;;;;;;;1.35;1.10;;;15.50;99.90;;;;;;10141308;28;20036;-66
2023/05/12 22:50:04;;;;;;;1.45;1.08;;;15.50;99.90;;;;;;10150411;28;20553;-62
2023/05/12 22:54:54;;;;;;;1.58;1.13;;;15.60;99.90;;;;;;10141971;28;20042;-62
2023/05/12 22:59:45;;;;;;;1.77;1.23;;;15.60;99.90;;;;;;10123767;28;20047;-62
2023/05/12 23:04:35;;;;;;;1.95;1.20;;;15.60;99.90;;;;;;10131203;28;20079;-63
2023/05/12 23:09:26;;;;;;;2.78;1.00;;;15.60;99.90;;;;;;10138047;28;20477;-62
2023/05/12 23:14:17;;;;;;;1.50;0.88;;;15.50;99.90;;;;;;10155580;28;20062;-61
2023/05/12 23:19:08;;;;;;;1.60;1.10;;;15.40;99.90;;;;;;10121810;28;20025;-63
2023/05/12 23:23:58;;;;;;;1.65;1.30;;;15.20;99.90;;;;;;10147072;28;20047;-64
2023/05/12 23:28:49;;;;;;;1.58;1.05;;;15.20;99.90;;;;;;10151091;28;20035;-63
2023/05/12 23:33:40;;;;;;;1.23;0.95;;;15.20;99.90;;;;;;10141746;28;20119;-64
2023/05/12 23:38:30;;;;;;;2.00;0.95;;;15.10;99.90;;;;;;10139442;28;20037;-63
2023/05/12 23:43:21;;;;;;;2.47;1.60;;;15.20;99.90;;;;;;10127202;28;20029;-62
2023/05/12 23:48:12;;;;;;;6.88;2.33;;;15.10;99.90;;;;;;10128589;28;20206;-64
2023/05/12 23:53:02;;;;;;;3.92;1.75;;;15.00;99.90;;;;;;10125757;28;20060;-67
2023/05/12 23:57:53;;;;;;;1.95;1.25;;;15.00;99.90;;;;;;10128879;28;20040;-64
